Holualoa, HI (96725)

1:44 PM HST on July 30, 2016 (GMT -1000)
Kona Vistas | | Change Station

Elev 541 ft 19.61 °N, 155.96 °W | Updated 12 seconds ago

Clear
Clear
81.1 °F
Feels Like 83 °F
N
2.5
Wind Variable Wind from South
Gusts 7.4 mph

Today
High -- | Low -- °F
--% Chance of Precip.
Yesterday
High -- | Low -- °F
Precip. -- in
Pressure 29.93 in
Visibility 10.0 miles
Clouds Clear
Heat Index 83 °F
Dew Point 65 °F
Humidity 58%
Rainfall 0.00 in
Snow Depth Not available.
5:59 AM 7:00 PM
Waning Crescent, 10% visible
METAR PHKO 302253Z 23011KT 10SM CLR 31/21 A2992 RMK AO2 SLP133 T03110206
Pressure 29.93 in
Visibility 10.0 miles
Clouds Clear
Heat Index 83 °F
Dew Point 65 °F
Humidity 58%
Rainfall 0.00 in
Snow Depth Not available.
5:59 AM 7:00 PM
Waning Crescent, 10% visible
METAR PHKO 302253Z 23011KT 10SM CLR 31/21 A2992 RMK AO2 SLP133 T03110206

10-Day Weather Forecast

Almanac

Astronomy

Jul. 30, 2016 Rise Set
Actual Time
Civil Twilight
Nautical Twilight
Astronomical Twilight
Moon
Length of Visible Light
Length of Day
Tomorrow will be .
, % of the Moon is Illuminated

Today's Extremes

State Highs State Lows

Community

WunderPhotos

Upload Photos

1,928,680 photos uploaded!

WunderBlog® & News

Nearby

Air Quality

  Air Quality AQ Index Pollutant
Not available.

Snow Depth

Station Depth Elevation

Earthquake Activity

City Distance Mag. Time & Date
Minimum magnitude displayed is 2.5.

Coastal Water Temperatures

Place Temperature

Stations

Nearby Weather Stations

Station Location Temp. Windchill Dew Point Humidity Wind Precip. Elev Updated Type
                   

Watches & Warnings

There are currently no watches in effect.